createdAt,value
2018-04-27T00:00:11.399Z,7.08
2018-04-27T00:01:05.634Z,7.09
2018-04-27T00:02:05.942Z,7.12
2018-04-27T00:03:05.829Z,7.16
2018-04-27T00:04:06.391Z,7.15
2018-04-27T00:05:06.766Z,7.13
2018-04-27T00:06:06.414Z,7.22
2018-04-27T00:07:06.528Z,7.23
2018-04-27T00:08:06.956Z,7.29
2018-04-27T00:09:07.001Z,7.26
2018-04-27T00:10:06.771Z,7.23
2018-04-27T00:11:07.358Z,7.23
2018-04-27T00:12:07.094Z,7.19
2018-04-27T00:13:07.513Z,7
2018-04-27T00:14:07.653Z,7.04
2018-04-27T00:15:07.269Z,6.97
2018-04-27T00:16:08.750Z,7
2018-04-27T00:17:07.976Z,6.83
2018-04-27T00:18:08.009Z,6.9
2018-04-27T00:19:07.639Z,6.88
2018-04-27T00:20:07.881Z,6.85
2018-04-27T00:21:09.442Z,6.67
2018-04-27T00:22:08.544Z,6.76
2018-04-27T00:23:09.143Z,6.76
2018-04-27T00:24:09.075Z,6.7
2018-04-27T00:25:09.295Z,6.67
2018-04-27T00:26:09.247Z,6.64
2018-04-27T00:27:09.305Z,6.65
2018-04-27T00:28:09.305Z,6.6
2018-04-27T00:29:09.140Z,6.61
2018-04-27T00:30:09.398Z,6.62
2018-04-27T00:31:09.208Z,6.57
2018-04-27T00:32:09.369Z,6.54
2018-04-27T00:33:08.965Z,6.46
2018-04-27T00:34:09.502Z,6.42
2018-04-27T00:35:09.593Z,6.36
2018-04-27T00:36:09.435Z,6.4
2018-04-27T00:37:10.007Z,6.26
2018-04-27T00:38:10.135Z,6.2
2018-04-27T00:39:10.256Z,6.29
2018-04-27T00:40:10.274Z,6.17
2018-04-27T00:41:10.611Z,6.25
2018-04-27T00:42:10.592Z,6.26
2018-04-27T00:43:10.604Z,6.28
2018-04-27T00:44:11.017Z,6.2
2018-04-27T00:45:10.503Z,6.24
2018-04-27T00:46:10.926Z,6.18
2018-04-27T00:47:11.204Z,6.13
2018-04-27T00:48:11.240Z,6.14
2018-04-27T00:49:10.885Z,6.1
2018-04-27T00:50:11.149Z,6.06
2018-04-27T00:51:11.456Z,6.03
2018-04-27T00:52:11.432Z,6.05
2018-04-27T00:53:11.479Z,6
2018-04-27T00:54:11.215Z,5.98
2018-04-27T00:55:11.328Z,5.88
2018-04-27T00:56:11.307Z,5.99
2018-04-27T00:57:11.968Z,5.91
2018-04-27T00:58:11.990Z,5.89
2018-04-27T00:59:12.721Z,5.87
2018-04-27T01:00:13.883Z,5.85
2018-04-27T01:01:12.839Z,5.87
2018-04-27T01:02:13.213Z,5.87
2018-04-27T01:03:13.338Z,5.78
2018-04-27T01:04:13.490Z,5.81
2018-04-27T01:05:12.956Z,5.82
2018-04-27T01:06:13.682Z,5.78
2018-04-27T01:07:13.562Z,5.8
2018-04-27T01:08:13.677Z,5.87
2018-04-27T01:09:13.989Z,5.67
2018-04-27T01:10:14.141Z,5.66
2018-04-27T01:11:14.531Z,5.72
2018-04-27T01:12:14.641Z,5.69
2018-04-27T01:13:14.620Z,5.59
2018-04-27T01:14:14.221Z,5.63
2018-04-27T01:15:14.611Z,5.6
2018-04-27T01:16:15.275Z,5.59
2018-04-27T01:17:15.036Z,5.55
2018-04-27T01:18:15.463Z,5.55
2018-04-27T01:19:15.898Z,5.63
2018-04-27T01:20:16.270Z,5.59
2018-04-27T01:21:16.299Z,5.64
2018-04-27T01:22:16.151Z,5.54
2018-04-27T01:23:16.934Z,5.46
2018-04-27T01:24:16.432Z,5.57
2018-04-27T01:25:16.435Z,5.51
2018-04-27T01:26:16.429Z,5.54
2018-04-27T01:27:16.212Z,5.54
2018-04-27T01:28:17.280Z,5.54
2018-04-27T01:29:16.817Z,5.51
2018-04-27T01:30:17.684Z,5.54
2018-04-27T01:31:17.447Z,5.42
2018-04-27T01:32:17.381Z,5.51
2018-04-27T01:33:17.546Z,5.44
2018-04-27T01:34:16.882Z,5.46
2018-04-27T01:35:17.019Z,5.41
2018-04-27T01:36:16.945Z,5.46
2018-04-27T01:37:16.708Z,5.41
2018-04-27T01:38:17.165Z,5.48
2018-04-27T01:39:16.965Z,5.36
2018-04-27T01:40:16.973Z,5.39
2018-04-27T01:41:17.139Z,5.31
2018-04-27T01:42:17.452Z,5.36
2018-04-27T01:43:17.905Z,5.36
2018-04-27T01:44:18.540Z,5.36
2018-04-27T01:45:18.482Z,5.37
2018-04-27T01:46:18.953Z,5.34
2018-04-27T01:47:19.043Z,5.34
2018-04-27T01:48:19.014Z,5.24
2018-04-27T01:49:19.573Z,5.27
2018-04-27T01:50:19.475Z,5.28
2018-04-27T01:51:19.531Z,5.23
2018-04-27T01:52:21.449Z,5.16
2018-04-27T01:53:20.379Z,5.2
2018-04-27T01:54:20.328Z,5.2
2018-04-27T01:55:21.092Z,5.13
2018-04-27T01:56:21.070Z,5.13
2018-04-27T01:57:21.195Z,5.05
2018-04-27T01:58:20.845Z,5.08
2018-04-27T01:59:21.548Z,5.12
2018-04-27T02:00:21.724Z,5.03
2018-04-27T02:01:21.628Z,5
2018-04-27T02:02:21.808Z,5.03
2018-04-27T02:03:21.747Z,4.88
2018-04-27T02:04:21.854Z,4.94
2018-04-27T02:05:21.474Z,4.88
2018-04-27T02:06:21.665Z,4.92
2018-04-27T02:07:22.111Z,4.87
2018-04-27T02:08:22.366Z,4.87
2018-04-27T02:09:22.443Z,4.92
2018-04-27T02:10:22.225Z,4.98
2018-04-27T02:11:22.462Z,4.88
2018-04-27T02:12:22.851Z,4.97
2018-04-27T02:13:22.575Z,5.06
2018-04-27T02:14:22.295Z,4.98
2018-04-27T02:15:22.383Z,5.08
2018-04-27T02:16:22.607Z,5
2018-04-27T02:17:22.806Z,5.03
2018-04-27T02:18:23.093Z,5.06
2018-04-27T02:19:22.911Z,5.16
2018-04-27T02:20:22.864Z,5.08
2018-04-27T02:21:23.163Z,5.05
2018-04-27T02:22:23.085Z,5.08
2018-04-27T02:23:23.139Z,5.09
2018-04-27T02:24:23.740Z,4.98
2018-04-27T02:25:24.008Z,4.87
2018-04-27T02:26:23.573Z,4.97
2018-04-27T02:27:23.531Z,4.87
2018-04-27T02:28:23.846Z,4.88
2018-04-27T02:29:24.307Z,4.88
2018-04-27T02:30:23.926Z,4.94
2018-04-27T02:31:24.141Z,4.85
2018-04-27T02:32:24.341Z,4.91
2018-04-27T02:33:24.833Z,4.98
2018-04-27T02:34:24.608Z,4.94
2018-04-27T02:35:24.831Z,4.94
2018-04-27T02:36:25.301Z,4.85
2018-04-27T02:37:24.786Z,4.91
2018-04-27T02:38:25.360Z,4.85
2018-04-27T02:39:25.423Z,4.79
2018-04-27T02:40:25.141Z,4.85
2018-04-27T02:41:25.460Z,4.83
2018-04-27T02:42:25.463Z,4.74
2018-04-27T02:43:25.495Z,4.75
2018-04-27T02:44:25.527Z,4.74
2018-04-27T02:45:25.332Z,4.79
2018-04-27T02:46:25.878Z,4.79
2018-04-27T02:47:25.733Z,4.9
2018-04-27T02:48:26.554Z,4.79
2018-04-27T02:49:26.047Z,4.72
2018-04-27T02:50:26.815Z,4.66
2018-04-27T02:51:26.652Z,4.68
2018-04-27T02:52:26.919Z,4.61
2018-04-27T02:53:26.692Z,4.68
2018-04-27T02:54:26.911Z,4.69
2018-04-27T02:55:26.729Z,4.57
2018-04-27T02:56:26.503Z,4.48
2018-04-27T02:57:27.045Z,4.53
2018-04-27T02:58:27.300Z,4.6
2018-04-27T02:59:26.844Z,4.58
2018-04-27T03:00:26.946Z,4.54
2018-04-27T03:01:27.160Z,4.56
2018-04-27T03:02:27.137Z,4.51
2018-04-27T03:03:26.660Z,4.54
2018-04-27T03:04:27.050Z,4.53
2018-04-27T03:05:26.459Z,4.65
2018-04-27T03:06:27.006Z,4.51
2018-04-27T03:07:27.036Z,4.5
2018-04-27T03:08:27.051Z,4.36
2018-04-27T03:09:26.837Z,4.53
2018-04-27T03:10:26.575Z,4.53
2018-04-27T03:11:27.402Z,4.51
2018-04-27T03:12:27.116Z,4.46
2018-04-27T03:13:27.448Z,4.44
2018-04-27T03:14:27.459Z,4.3
2018-04-27T03:15:27.673Z,4.47
2018-04-27T03:16:28.131Z,4.35
2018-04-27T03:17:28.189Z,4.42
2018-04-27T03:18:28.237Z,4.33
2018-04-27T03:19:28.029Z,4.38
2018-04-27T03:20:28.208Z,4.33
2018-04-27T03:21:28.955Z,4.42
2018-04-27T03:22:28.714Z,4.33
2018-04-27T03:23:28.748Z,4.36
2018-04-27T03:24:28.781Z,4.4
2018-04-27T03:25:29.270Z,4.36
2018-04-27T03:26:29.281Z,4.36
2018-04-27T03:27:29.312Z,4.26
2018-04-27T03:28:29.327Z,4.24
2018-04-27T03:29:29.894Z,4.29
2018-04-27T03:30:29.829Z,4.17
2018-04-27T03:31:29.314Z,4.12
2018-04-27T03:32:29.605Z,4.29
2018-04-27T03:33:30.213Z,4.29
2018-04-27T03:34:29.967Z,4.21
2018-04-27T03:35:29.904Z,4.17
2018-04-27T03:36:30.174Z,4.21
2018-04-27T03:37:30.211Z,4.18
2018-04-27T03:38:29.951Z,4.21
2018-04-27T03:39:30.456Z,4.29
2018-04-27T03:40:30.452Z,4.26
2018-04-27T03:41:30.760Z,4.28
2018-04-27T03:42:30.782Z,4.33
2018-04-27T03:43:30.514Z,4.26
2018-04-27T03:44:31.110Z,4.32
2018-04-27T03:45:31.330Z,4.32
2018-04-27T03:46:31.264Z,4.33
2018-04-27T03:47:31.474Z,4.36
2018-04-27T03:48:31.920Z,4.35
2018-04-27T03:49:32.406Z,4.33
2018-04-27T03:50:32.426Z,4.36
2018-04-27T03:51:32.442Z,4.42
2018-04-27T03:52:32.456Z,4.28
2018-04-27T03:53:32.491Z,4.33
2018-04-27T03:54:32.526Z,4.36
2018-04-27T03:55:32.547Z,4.33
2018-04-27T03:56:32.563Z,4.47
2018-04-27T03:57:32.778Z,4.32
2018-04-27T03:58:32.904Z,4.44
2018-04-27T03:59:33.205Z,4.47
2018-04-27T04:00:33.164Z,4.58
2018-04-27T04:01:33.475Z,4.54
2018-04-27T04:02:33.432Z,4.57
2018-04-27T04:03:33.788Z,4.68
2018-04-27T04:04:34.361Z,4.68
2018-04-27T04:05:34.041Z,4.71
2018-04-27T04:06:34.837Z,4.78
2018-04-27T04:07:34.642Z,4.78
2018-04-27T04:08:34.208Z,4.78
2018-04-27T04:09:34.233Z,4.74
2018-04-27T04:10:34.218Z,4.85
2018-04-27T04:11:34.504Z,4.78
2018-04-27T04:12:34.246Z,4.79
2018-04-27T04:13:34.293Z,4.76
2018-04-27T04:14:34.573Z,4.74
2018-04-27T04:15:35.232Z,4.72
2018-04-27T04:16:35.153Z,4.84
2018-04-27T04:17:35.048Z,4.74
2018-04-27T04:18:34.799Z,4.76
2018-04-27T04:19:35.217Z,4.68
2018-04-27T04:20:35.364Z,4.76
2018-04-27T04:21:35.398Z,4.9
2018-04-27T04:22:35.555Z,4.83
2018-04-27T04:23:35.326Z,4.84
2018-04-27T04:24:35.982Z,4.9
2018-04-27T04:25:36.000Z,4.88
2018-04-27T04:26:36.037Z,4.9
2018-04-27T04:27:36.062Z,4.98
2018-04-27T04:28:35.938Z,5
2018-04-27T04:29:36.581Z,5.02
2018-04-27T04:30:36.994Z,5.03
2018-04-27T04:31:36.736Z,5.06
2018-04-27T04:32:37.139Z,5.13
2018-04-27T04:33:37.543Z,5.16
2018-04-27T04:34:37.436Z,5.21
2018-04-27T04:35:37.878Z,5.16
2018-04-27T04:36:37.906Z,5.28
2018-04-27T04:37:38.301Z,5.3
2018-04-27T04:38:38.129Z,5.24
2018-04-27T04:39:38.515Z,5.26
2018-04-27T04:40:38.527Z,5.33
2018-04-27T04:41:38.326Z,5.39
2018-04-27T04:42:38.648Z,5.57
2018-04-27T04:43:38.267Z,5.64
2018-04-27T04:44:38.849Z,5.66
2018-04-27T04:45:38.464Z,5.82
2018-04-27T04:46:39.288Z,5.99
2018-04-27T04:47:39.751Z,6.07
2018-04-27T04:48:39.703Z,6.29
2018-04-27T04:49:40.025Z,6.31
2018-04-27T04:50:40.293Z,6.31
2018-04-27T04:51:40.003Z,6.26
2018-04-27T04:52:40.912Z,6.26
2018-04-27T04:53:40.905Z,6.17
2018-04-27T04:54:40.461Z,6.29
2018-04-27T04:55:40.837Z,6.34
2018-04-27T04:56:40.619Z,6.4
2018-04-27T04:57:40.371Z,6.47
2018-04-27T04:58:41.462Z,6.55
2018-04-27T04:59:41.125Z,6.52
2018-04-27T05:00:42.399Z,6.51
2018-04-27T05:01:43.540Z,6.58
2018-04-27T05:02:41.026Z,6.61
2018-04-27T05:03:41.521Z,6.67
2018-04-27T05:04:41.393Z,6.72
2018-04-27T05:05:42.755Z,6.91
2018-04-27T05:06:43.195Z,7.04
2018-04-27T05:07:42.677Z,7.18
2018-04-27T05:08:42.621Z,7.36
2018-04-27T05:09:43.480Z,7.45
2018-04-27T05:10:43.744Z,7.67
2018-04-27T05:11:43.214Z,7.74
2018-04-27T05:12:43.310Z,7.71
2018-04-27T05:13:43.126Z,7.83
2018-04-27T05:14:43.112Z,7.93
2018-04-27T05:15:44.359Z,7.89
2018-04-27T05:16:43.652Z,7.92
2018-04-27T05:17:44.489Z,8.09
2018-04-27T05:18:44.228Z,8.1
2018-04-27T05:19:44.830Z,8.16
2018-04-27T05:20:44.894Z,8.21
2018-04-27T05:21:45.163Z,8.42
2018-04-27T05:22:45.281Z,8.43
2018-04-27T05:23:44.631Z,8.54
2018-04-27T05:24:44.947Z,8.8
2018-04-27T05:25:45.632Z,9.01
2018-04-27T05:26:46.760Z,9.24
2018-04-27T05:27:46.696Z,9.56
2018-04-27T05:28:46.494Z,9.89
2018-04-27T05:29:46.388Z,10.25
2018-04-27T05:30:46.370Z,10.59
2018-04-27T05:31:46.891Z,10.92
2018-04-27T05:32:47.838Z,11.16
2018-04-27T05:33:47.117Z,11.21
2018-04-27T05:34:47.697Z,11.45
2018-04-27T05:35:48.015Z,11.76
2018-04-27T05:36:47.480Z,11.95
2018-04-27T05:37:48.211Z,12.11
2018-04-27T05:38:47.665Z,12.37
2018-04-27T05:39:47.975Z,12.61
2018-04-27T05:40:48.279Z,12.88
2018-04-27T05:41:48.009Z,12.98
2018-04-27T05:42:48.504Z,12.98
2018-04-27T05:43:49.192Z,12.66
2018-04-27T05:44:48.967Z,12.41
2018-04-27T05:45:49.054Z,12.19
2018-04-27T05:46:49.190Z,12.11
2018-04-27T05:47:49.523Z,12.01
2018-04-27T05:48:49.565Z,11.91
2018-04-27T05:49:49.432Z,11.94
2018-04-27T05:50:49.755Z,12.01
2018-04-27T05:51:49.778Z,12.36
2018-04-27T05:52:49.921Z,12.55
2018-04-27T05:53:49.728Z,12.91
2018-04-27T05:54:50.486Z,13.32
2018-04-27T05:55:50.136Z,13.83
2018-04-27T05:56:50.596Z,14.34
2018-04-27T05:57:50.824Z,14.7
2018-04-27T05:58:51.066Z,14.79
2018-04-27T05:59:50.735Z,14.8
2018-04-27T06:00:51.120Z,14.82
2018-04-27T06:01:51.585Z,14.95
2018-04-27T06:02:51.816Z,15.05
2018-04-27T06:03:51.554Z,15.31
2018-04-27T06:04:51.618Z,15.51
2018-04-27T06:05:51.903Z,15.62
2018-04-27T06:06:52.365Z,15.8
2018-04-27T06:07:51.880Z,16
2018-04-27T06:08:52.431Z,16.26
2018-04-27T06:09:52.199Z,16.14
2018-04-27T06:10:52.212Z,16.21
2018-04-27T06:11:52.821Z,16.27
2018-04-27T06:12:52.774Z,16.37
2018-04-27T06:13:52.859Z,16.48
2018-04-27T06:14:52.813Z,16.72
2018-04-27T06:15:52.548Z,16.88
2018-04-27T06:16:53.376Z,17.09
2018-04-27T06:17:53.179Z,17.57
2018-04-27T06:18:53.481Z,18.11
2018-04-27T06:19:53.230Z,18.71
2018-04-27T06:20:53.681Z,19.09
2018-04-27T06:21:53.852Z,19.42
2018-04-27T06:22:53.926Z,19.49
2018-04-27T06:23:54.235Z,19
2018-04-27T06:24:54.235Z,18.74
2018-04-27T06:25:54.093Z,18.53
2018-04-27T06:26:54.094Z,18.53
2018-04-27T06:27:54.315Z,18.26
2018-04-27T06:28:54.139Z,18.29
2018-04-27T06:29:54.121Z,18.19
2018-04-27T06:30:54.660Z,18.21
2018-04-27T06:31:55.459Z,18.29
2018-04-27T06:32:55.287Z,18.5
2018-04-27T06:33:55.345Z,19.23
2018-04-27T06:34:55.092Z,20.02
2018-04-27T06:35:55.319Z,21.06
2018-04-27T06:36:55.805Z,21.53
2018-04-27T06:37:56.142Z,21.99
2018-04-27T06:38:55.874Z,22.49
2018-04-27T06:39:55.976Z,22.81
2018-04-27T06:40:56.261Z,23.35
2018-04-27T06:41:56.487Z,23.67
2018-04-27T06:42:56.282Z,24.18
2018-04-27T06:43:56.917Z,24.54
2018-04-27T06:44:56.946Z,24.29
2018-04-27T06:45:56.726Z,24.14
2018-04-27T06:46:57.437Z,24.18
2018-04-27T06:47:57.422Z,24.29
2018-04-27T06:48:58.099Z,24.39
2018-04-27T06:49:58.215Z,24.42
2018-04-27T06:50:58.380Z,24.48
2018-04-27T06:51:58.640Z,24.74
2018-04-27T06:53:00.365Z,25.01
2018-04-27T06:53:59.212Z,25.08
2018-04-27T06:54:59.663Z,24.85
2018-04-27T06:55:59.410Z,24.85
2018-04-27T06:56:59.729Z,24.61
2018-04-27T06:57:59.931Z,24.48
2018-04-27T06:58:59.893Z,24.04
2018-04-27T06:59:59.947Z,23.85
2018-04-27T07:01:00.242Z,23.99
2018-04-27T07:02:00.285Z,23.85
2018-04-27T07:03:00.310Z,23.87
2018-04-27T07:04:00.349Z,23.84
2018-04-27T07:05:00.120Z,23.9
2018-04-27T07:06:00.136Z,24.11
2018-04-27T07:07:00.543Z,24.45
2018-04-27T07:08:00.828Z,24.82
2018-04-27T07:09:01.339Z,25.42
2018-04-27T07:10:01.280Z,25.76
2018-04-27T07:11:01.498Z,25.89
2018-04-27T07:12:01.721Z,25.94
2018-04-27T07:13:01.777Z,26.23
2018-04-27T07:14:01.514Z,26.69
2018-04-27T07:15:01.654Z,27.48
2018-04-27T07:16:02.355Z,28.38
2018-04-27T07:17:02.873Z,29.11
2018-04-27T07:18:02.430Z,29.55
2018-04-27T07:19:02.710Z,29.38
2018-04-27T07:20:02.856Z,29.45
2018-04-27T07:21:02.786Z,28.95
2018-04-27T07:22:03.165Z,28.61
2018-04-27T07:23:02.839Z,28.08
2018-04-27T07:24:02.815Z,27.79
2018-04-27T07:25:03.251Z,27.52
2018-04-27T07:26:03.683Z,26.84
2018-04-27T07:27:02.968Z,26.41
2018-04-27T07:28:03.270Z,26.15
2018-04-27T07:29:02.785Z,26.22
2018-04-27T07:30:03.113Z,25.94
2018-04-27T07:31:03.211Z,26.04
2018-04-27T07:32:03.676Z,26.34
2018-04-27T07:33:03.457Z,26.71
2018-04-27T07:34:03.500Z,26.86
2018-04-27T07:35:03.304Z,26.53
2018-04-27T07:36:03.290Z,26.34
2018-04-27T07:37:03.056Z,25.86
2018-04-27T07:38:03.537Z,25.42
2018-04-27T07:39:03.764Z,25.26
2018-04-27T07:40:03.652Z,25.09
2018-04-27T07:41:03.428Z,24.69
2018-04-27T07:42:04.171Z,24.37
2018-04-27T07:43:04.465Z,23.82
2018-04-27T07:44:03.993Z,23.35
2018-04-27T07:45:04.519Z,23.25
2018-04-27T07:46:04.282Z,23.47
2018-04-27T07:47:04.550Z,24.21
2018-04-27T07:48:04.244Z,25.15
2018-04-27T07:49:04.299Z,26.22
2018-04-27T07:50:04.667Z,26.89
2018-04-27T07:51:04.356Z,27.76
2018-04-27T07:52:04.939Z,28.43
2018-04-27T07:53:04.977Z,28.83
2018-04-27T07:54:05.022Z,29.57
2018-04-27T07:55:04.913Z,29.85
2018-04-27T07:56:04.833Z,30.29
2018-04-27T07:57:04.928Z,30.82
2018-04-27T07:58:05.415Z,30.89
2018-04-27T07:59:05.706Z,30.04
2018-04-27T08:00:11.239Z,29.28
2018-04-27T08:01:07.375Z,28.53
2018-04-27T08:02:07.622Z,27.89
2018-04-27T08:03:07.617Z,27.55
2018-04-27T08:04:07.374Z,27.01
2018-04-27T08:05:07.227Z,26.75
2018-04-27T08:06:07.508Z,26.52
2018-04-27T08:07:07.969Z,27.04
2018-04-27T08:08:07.924Z,27.61
2018-04-27T08:09:08.290Z,28.35
2018-04-27T08:10:08.327Z,29.3
2018-04-27T08:11:08.105Z,29.98
2018-04-27T08:12:08.489Z,30.86
2018-04-27T08:13:08.610Z,31.67
2018-04-27T08:14:08.997Z,32.5
2018-04-27T08:15:09.438Z,32.79
2018-04-27T08:16:08.909Z,32.64
2018-04-27T08:17:09.300Z,32.8
2018-04-27T08:18:09.722Z,32.91
2018-04-27T08:19:09.791Z,33.59
2018-04-27T08:20:10.403Z,34.03
2018-04-27T08:21:10.199Z,34.15
2018-04-27T08:22:10.174Z,34.05
2018-04-27T08:23:10.815Z,34.24
2018-04-27T08:24:11.520Z,34.34
2018-04-27T08:25:10.776Z,34.02
2018-04-27T08:26:11.037Z,33.9
2018-04-27T08:27:10.636Z,33.96
2018-04-27T08:28:10.919Z,34.15
2018-04-27T08:29:11.143Z,33.5
2018-04-27T08:30:11.104Z,32.81
2018-04-27T08:31:10.921Z,32.57
2018-04-27T08:32:12.739Z,32.74
2018-04-27T08:33:12.251Z,33.08
2018-04-27T08:34:12.702Z,33.17
2018-04-27T08:35:12.533Z,33.34
2018-04-27T08:36:12.716Z,33.95
2018-04-27T08:37:12.182Z,34.58
2018-04-27T08:38:13.077Z,34.99
2018-04-27T08:39:13.049Z,35.64
2018-04-27T08:40:12.839Z,35.87
2018-04-27T08:41:13.243Z,35.98
2018-04-27T08:42:13.389Z,36.39
2018-04-27T08:43:13.659Z,36.59
2018-04-27T08:44:14.188Z,36.89
2018-04-27T08:45:14.154Z,37.05
2018-04-27T08:46:15.166Z,37.31
2018-04-27T08:47:14.247Z,37.26
2018-04-27T08:48:14.442Z,37.22
2018-04-27T08:49:15.197Z,37.61
2018-04-27T08:50:15.171Z,37.8
2018-04-27T08:51:14.399Z,38.22
2018-04-27T08:52:15.430Z,38.59
2018-04-27T08:53:15.439Z,37
2018-04-27T08:54:15.158Z,36.63
2018-04-27T08:55:15.156Z,36.01
2018-04-27T08:56:15.478Z,36.04
2018-04-27T08:57:14.517Z,36.44
2018-04-27T08:58:14.736Z,36.89
2018-04-27T08:59:14.460Z,37.17
2018-04-27T09:00:28.177Z,37.86
2018-04-27T09:01:27.440Z,38.03
2018-04-27T09:02:28.142Z,38.61
2018-04-27T09:03:27.803Z,38.9
2018-04-27T09:04:28.442Z,39.22
2018-04-27T09:05:27.626Z,38.93
2018-04-27T09:06:28.437Z,38.65
2018-04-27T09:07:28.131Z,38.66
2018-04-27T09:08:27.979Z,38.7
2018-04-27T09:09:28.570Z,38.5
2018-04-27T09:10:28.306Z,38
2018-04-27T09:11:28.929Z,37.99
2018-04-27T09:12:28.863Z,38.1
2018-04-27T09:13:28.829Z,38.47
2018-04-27T09:14:28.445Z,39.04
2018-04-27T09:15:29.685Z,39.33
2018-04-27T09:16:28.983Z,39.13
2018-04-27T09:17:29.491Z,38.83
2018-04-27T09:18:29.872Z,38.8
2018-04-27T09:19:29.334Z,38.35
2018-04-27T09:20:29.705Z,38.09
2018-04-27T09:21:29.755Z,38.1
2018-04-27T09:22:29.527Z,38.39
2018-04-27T09:23:29.275Z,38.8
2018-04-27T09:24:29.972Z,39.06
2018-04-27T09:25:29.769Z,39.3
2018-04-27T09:26:30.563Z,39.22
2018-04-27T09:27:30.972Z,38.64
2018-04-27T09:28:31.127Z,37.84
2018-04-27T09:29:31.593Z,36.52
2018-04-27T09:30:31.493Z,35.99
2018-04-27T09:31:32.182Z,36.25
2018-04-27T09:32:33.018Z,36.25
2018-04-27T09:33:32.446Z,36.47
2018-04-27T09:34:33.105Z,36.51
2018-04-27T09:35:33.478Z,35.74
2018-04-27T09:36:33.483Z,35.47
2018-04-27T09:37:33.966Z,34.9
2018-04-27T09:38:33.975Z,34.93
2018-04-27T09:39:34.751Z,34.4
2018-04-27T09:40:34.803Z,34.96
2018-04-27T09:41:34.248Z,35.69
2018-04-27T09:42:34.949Z,35.58
2018-04-27T09:43:34.998Z,35.53
2018-04-27T09:44:35.059Z,35.94
2018-04-27T09:45:34.787Z,36.15
2018-04-27T09:46:35.210Z,36.59
2018-04-27T09:47:35.242Z,37.05
2018-04-27T09:48:35.015Z,37.24
2018-04-27T09:49:35.372Z,37.44
2018-04-27T09:50:35.418Z,36.33
2018-04-27T09:51:35.794Z,35.6
2018-04-27T09:52:35.957Z,35.45
2018-04-27T09:53:36.484Z,35.96
2018-04-27T09:54:36.623Z,35.79
2018-04-27T09:55:36.410Z,35.86
2018-04-27T09:56:36.730Z,36.08
2018-04-27T09:57:37.395Z,34.93
2018-04-27T09:58:37.002Z,34.79
2018-04-27T09:59:37.288Z,34.87
2018-04-27T10:00:37.388Z,35.06
2018-04-27T10:01:37.415Z,35.49
2018-04-27T10:02:37.499Z,34.99
2018-04-27T10:03:37.255Z,35.26
2018-04-27T10:04:37.986Z,34.94
2018-04-27T10:05:38.552Z,34.64
2018-04-27T10:06:38.143Z,33.48
2018-04-27T10:07:38.400Z,31.9
2018-04-27T10:08:38.789Z,31.8
2018-04-27T10:09:38.779Z,31.81
2018-04-27T10:10:39.011Z,31.59
2018-04-27T10:11:39.517Z,31.28
2018-04-27T10:12:39.552Z,30.91
2018-04-27T10:13:39.561Z,29.7
2018-04-27T10:14:39.324Z,28.64
2018-04-27T10:15:39.361Z,27.76
2018-04-27T10:16:39.881Z,28.2
2018-04-27T10:17:39.799Z,28.94
2018-04-27T10:18:40.126Z,30.11
2018-04-27T10:19:40.415Z,30.34
2018-04-27T10:20:40.403Z,30.03
2018-04-27T10:21:40.405Z,28.97
2018-04-27T10:22:40.182Z,27.61
2018-04-27T10:23:40.299Z,26.32
2018-04-27T10:24:41.641Z,25.23
2018-04-27T10:25:40.946Z,24.18
2018-04-27T10:26:40.656Z,23.5
2018-04-27T10:27:40.762Z,22.71
2018-04-27T10:28:41.280Z,22.16
2018-04-27T10:29:41.806Z,21.61
2018-04-27T10:30:41.055Z,21.96
2018-04-27T10:31:41.513Z,23.42
2018-04-27T10:32:41.288Z,24.19
2018-04-27T10:33:41.521Z,25.42
2018-04-27T10:34:41.524Z,27.11
2018-04-27T10:35:42.076Z,28.26
2018-04-27T10:36:41.929Z,29.36
2018-04-27T10:37:41.911Z,28.73
2018-04-27T10:38:42.188Z,29.14
2018-04-27T10:39:42.509Z,29.01
2018-04-27T10:40:42.570Z,29.6
2018-04-27T10:41:42.648Z,30.48
2018-04-27T10:42:42.346Z,31.4
2018-04-27T10:43:43.099Z,31.97
2018-04-27T10:44:42.844Z,32.56
2018-04-27T10:45:43.167Z,33.05
2018-04-27T10:46:43.249Z,33.21
2018-04-27T10:47:42.951Z,33.56
2018-04-27T10:48:43.179Z,33.5
2018-04-27T10:49:43.535Z,33.52
2018-04-27T10:50:43.300Z,33.63
2018-04-27T10:51:43.419Z,33.41
2018-04-27T10:52:43.672Z,33.03
2018-04-27T10:53:43.741Z,32.76
2018-04-27T10:54:43.851Z,32.05
2018-04-27T10:55:43.492Z,31.22
2018-04-27T10:56:43.268Z,30.45
2018-04-27T10:57:43.920Z,30.37
2018-04-27T10:58:44.061Z,30.49
2018-04-27T10:59:43.942Z,30.35
2018-04-27T11:00:44.121Z,30.39
2018-04-27T11:01:44.118Z,29.98
2018-04-27T11:02:43.827Z,29.28
2018-04-27T11:03:44.256Z,28.73
2018-04-27T11:04:44.328Z,28.68
2018-04-27T11:05:45.310Z,28.83
2018-04-27T11:06:44.177Z,29.14
2018-04-27T11:07:44.317Z,29.29
2018-04-27T11:08:44.429Z,29.33
2018-04-27T11:09:44.149Z,29.42
2018-04-27T11:10:44.716Z,29.54
2018-04-27T11:11:44.142Z,29.3
2018-04-27T11:12:44.142Z,29.15
2018-04-27T11:13:44.859Z,28.97
2018-04-27T11:14:44.693Z,28.58
2018-04-27T11:15:44.962Z,28.54
2018-04-27T11:16:45.587Z,28.26
2018-04-27T11:17:45.502Z,28.18
2018-04-27T11:18:44.796Z,27.84
2018-04-27T11:19:44.808Z,27.11
2018-04-27T11:20:45.120Z,26.49
2018-04-27T11:21:45.124Z,25.81
2018-04-27T11:22:44.977Z,25.22
2018-04-27T11:23:44.989Z,24.82
2018-04-27T11:24:45.546Z,24.33
2018-04-27T11:25:45.592Z,23.81
2018-04-27T11:26:45.820Z,23.42
2018-04-27T11:27:45.860Z,23.34
2018-04-27T11:28:46.062Z,23.48
2018-04-27T11:29:45.937Z,23.42
2018-04-27T11:30:45.960Z,23.18
2018-04-27T11:31:45.474Z,22.88
2018-04-27T11:32:46.086Z,22.61
2018-04-27T11:33:46.621Z,22.52
2018-04-27T11:34:47.163Z,22.52
2018-04-27T11:35:46.319Z,22.49
2018-04-27T11:36:47.812Z,22.49
2018-04-27T11:37:47.980Z,22.48
2018-04-27T11:38:48.085Z,22.29
2018-04-27T11:39:46.813Z,21.83
2018-04-27T11:40:46.962Z,21.45
2018-04-27T11:41:47.589Z,21.23
2018-04-27T11:42:47.745Z,20.94
2018-04-27T11:43:47.955Z,20.94
2018-04-27T11:44:47.799Z,20.81
2018-04-27T11:45:47.650Z,20.58
2018-04-27T11:46:47.742Z,20.49
2018-04-27T11:47:47.527Z,20.54
2018-04-27T11:48:48.106Z,20.41
2018-04-27T11:49:47.675Z,20.04
2018-04-27T11:50:48.153Z,19.86
2018-04-27T11:51:48.133Z,19.8
2018-04-27T11:52:48.478Z,19.79
2018-04-27T11:53:48.804Z,19.42
2018-04-27T11:54:48.518Z,19.25
2018-04-27T11:55:48.827Z,19.34
2018-04-27T11:56:48.859Z,19.31
2018-04-27T11:57:49.081Z,19.35
2018-04-27T11:58:49.110Z,19.53
2018-04-27T11:59:49.307Z,19.7
2018-04-27T12:00:49.518Z,19.75
2018-04-27T12:01:49.905Z,19.93
2018-04-27T12:02:50.018Z,20.12
2018-04-27T12:03:50.705Z,20
2018-04-27T12:04:50.761Z,20.08
2018-04-27T12:05:50.437Z,20.12
2018-04-27T12:06:50.816Z,20.27
2018-04-27T12:07:50.555Z,20.34
2018-04-27T12:08:50.861Z,20.41
2018-04-27T12:09:50.857Z,20.42
2018-04-27T12:10:50.889Z,20.51
2018-04-27T12:11:50.908Z,20.71
2018-04-27T12:12:51.386Z,20.74
2018-04-27T12:13:51.329Z,20.6
2018-04-27T12:14:51.945Z,20.6
2018-04-27T12:15:51.995Z,20.4
2018-04-27T12:16:51.996Z,20.32
2018-04-27T12:17:52.098Z,20.15
2018-04-27T12:18:52.062Z,19.87
2018-04-27T12:19:52.241Z,19.8
2018-04-27T12:20:52.622Z,19.72
2018-04-27T12:21:52.933Z,19.72
2018-04-27T12:22:53.148Z,19.68
2018-04-27T12:23:53.326Z,19.75
2018-04-27T12:24:53.084Z,19.85
2018-04-27T12:25:53.931Z,19.89
2018-04-27T12:26:54.821Z,20.01
2018-04-27T12:27:54.556Z,19.86
2018-04-27T12:28:54.582Z,19.68
2018-04-27T12:29:54.330Z,19.71
2018-04-27T12:30:54.684Z,19.67
2018-04-27T12:31:56.287Z,19.85
2018-04-27T12:32:55.472Z,19.83
2018-04-27T12:33:54.665Z,19.93
2018-04-27T12:34:55.420Z,20.05
2018-04-27T12:35:54.966Z,20.37
2018-04-27T12:36:54.982Z,20.41
2018-04-27T12:37:54.762Z,20.67
2018-04-27T12:38:55.619Z,20.81
2018-04-27T12:39:55.718Z,20.75
2018-04-27T12:40:55.771Z,20.78
2018-04-27T12:41:55.787Z,20.78
2018-04-27T12:42:56.109Z,20.75
2018-04-27T12:43:56.587Z,20.3
2018-04-27T12:44:57.043Z,20
2018-04-27T12:45:57.131Z,19.9
2018-04-27T12:46:56.610Z,19.72
2018-04-27T12:47:56.944Z,19.75
2018-04-27T12:48:56.890Z,19.72
2018-04-27T12:49:57.286Z,19.87
2018-04-27T12:50:56.968Z,19.92
2018-04-27T12:51:57.998Z,20
2018-04-27T12:52:58.592Z,20.04
2018-04-27T12:53:58.580Z,20.07
2018-04-27T12:54:58.323Z,20.08
2018-04-27T12:55:58.284Z,20.18
2018-04-27T12:56:58.084Z,20.11
2018-04-27T12:57:58.721Z,20.04
2018-04-27T12:58:58.459Z,20.12
2018-04-27T12:59:59.509Z,20.08
2018-04-27T13:00:58.979Z,20.04
2018-04-27T13:01:59.554Z,20.04
2018-04-27T13:02:58.834Z,19.92
2018-04-27T13:03:58.805Z,19.87
2018-04-27T13:04:59.151Z,19.8
2018-04-27T13:05:58.897Z,19.74
2018-04-27T13:06:59.365Z,19.45
2018-04-27T13:07:59.395Z,19.3